Informes de METARS cercanos

 

LEAL - Alicante/El Alte, Spain
Distance from station: SSE 60km
Actualización: 18/01/2022 07:00
Despejado
Despejado
 Viento del varies
Viento: varies 4 km/h
Temperatura: 3°C
Rocío: 1°C
Humedad: 87%
Barómetro: 1030 hPa
Resumen: Despejado
Visibility: greater than 10 km
2022/01/18 06:00 LEAL 180600Z VRB02KT CAVOK 03/01 Q1030 NOSIG
LEVC - Valencia (civ/Mi, Spain
Distance from station: NNE 84km
Actualización: 18/01/2022 07:00
Despejado
Despejado
 Viento del OSO
Viento: OSO 6 km/h
Temperatura: -1°C
Rocío: -3°C
Humedad: 86%
Barómetro: 1030 hPa
Resumen: Despejado
Visibility: greater than 10 km
2022/01/18 06:00 LEVC 180600Z 25003KT CAVOK M01/M03 Q1030 NOSIG
 
LEAB - Albacete (civ/Mi, Spain
Distance from station: O 95km
Actualización: 18/01/2022 07:00
Despejado
Despejado
 Viento del SSO
Viento: SSO 7 km/h
Temperatura: -6°C
Wind Chill: -10°C
Rocío: -7°C
Humedad: 93%
Barómetro: 1030 hPa
Resumen: Despejado
Visibility: greater than 10 km
2022/01/18 06:00 LEAB 180600Z 21004KT CAVOK M06/M07 Q1030 NOSIG
LERI - Alcantarilla(Sp-, Spain
Distance from station: SSO 100km
Actualización: 18/01/2022 07:00
Despejado
Despejado
 Viento del OSO
Viento: OSO 6 km/h
Temperatura: -2°C
Rocío: -3°C
Humedad: 93%
Barómetro: 1031 hPa
Resumen: Despejado
Visibility: greater than 10 km
2022/01/18 06:00 LERI 180600Z 24003KT CAVOK M02/M03 Q1031 NOSIG
 
LELC - San Javier(Mil/C, Spain
Distance from station: S 113km
Actualización: 18/01/2022 07:00
Parcialmente nuboso
Parcialmente nuboso
 Viento del O
Viento: O 7 km/h
Temperatura: 1°C
Wind Chill: -2°C
Rocío: 1°C
Humedad: 100%
Barómetro: 1031 hPa
Clouds: Parcialmente nuboso
Visibility: 9 km
2022/01/18 06:00 LELC 180600Z 26004KT 9000 NSC 01/01 Q1031 NOSIG
LEIB - Ibiza/Es Codola, Spain
Distance from station: E 186km
Actualización: 18/01/2022 07:00
Despejado
Despejado
 Viento del varies
Viento: varies 2 km/h
Temperatura: 3°C
Rocío: 3°C
Humedad: 100%
Barómetro: 1030 hPa
Resumen: Despejado
Visibility: greater than 10 km
2022/01/18 06:00 LEIB 180600Z VRB01KT CAVOK 03/03 Q1030 NOSIG
 
LEAM - Almeria Airport, Spain
Distance from station: SSO 256km
Actualización: 18/01/2022 07:00
Despejado
Despejado
 Viento del NNO
Viento: NNO 22 km/h
Temperatura: 6°C
Wind Chill: 2°C
Rocío: 1°C
Humedad: 71%
Barómetro: 1030 hPa
Resumen: Despejado
Visibility: greater than 10 km
2022/01/18 06:00 LEAM 180600Z 33012KT CAVOK 06/01 Q1030
LEMD - Madrid/Barajas, Spain
Distance from station: NO 305km
Actualización: 18/01/2022 07:00
Despejado
Despejado
 Viento del varies
Viento: varies 4 km/h
Temperatura: -4°C
Rocío: -6°C
Humedad: 86%
Barómetro: 1030 hPa
Resumen: Despejado
Visibility: greater than 10 km
2022/01/18 06:00 LEMD 180600Z VRB02KT CAVOK M04/M06 Q1030 NOSIG
 
LEPA - Palma De Mallorc, Spain
Distance from station: ENE 313km
Actualización: 18/01/2022 07:00
Poco nuboso
Poco nuboso
 Viento del NE
Viento: NE 4 km/h
Temperatura: -2°C
Rocío: -2°C
Humedad: 100%
Barómetro: 1030 hPa
Clouds: Poco nuboso
Visibility: 10 km
Cloud details: Poco nuboso 549 m
2022/01/18 06:00 LEPA 180600Z 05002KT 9999 FEW018 M02/M02 Q1030 NOSIG